sensor_id;sensor_type;location;lat;lon;timestamp;pressure;altitude;pressure_sealevel;temperature;humidity
80248;BME280;69560;52.206;21.018;2023-04-24T00:01:21;99314.27;;;16.00;35.55
80248;BME280;69560;52.206;21.018;2023-04-24T00:03:47;99313.55;;;16.01;35.59
80248;BME280;69560;52.206;21.018;2023-04-24T00:06:14;99313.31;;;16.01;35.60
80248;BME280;69560;52.206;21.018;2023-04-24T00:08:43;99308.55;;;15.99;35.73
80248;BME280;69560;52.206;21.018;2023-04-24T00:11:10;99305.14;;;15.98;35.68
80248;BME280;69560;52.206;21.018;2023-04-24T00:13:37;99304.29;;;15.96;35.82
80248;BME280;69560;52.206;21.018;2023-04-24T00:16:04;99305.14;;;15.93;35.82
80248;BME280;69560;52.206;21.018;2023-04-24T00:18:32;99306.52;;;15.91;35.88
80248;BME280;69560;52.206;21.018;2023-04-24T00:20:59;99306.13;;;15.87;35.90
80248;BME280;69560;52.206;21.018;2023-04-24T00:23:26;99300.55;;;15.81;35.83
80248;BME280;69560;52.206;21.018;2023-04-24T00:25:52;99298.71;;;15.77;35.97
80248;BME280;69560;52.206;21.018;2023-04-24T00:28:22;99297.73;;;15.73;36.01
80248;BME280;69560;52.206;21.018;2023-04-24T00:30:49;99296.24;;;15.71;36.15
80248;BME280;69560;52.206;21.018;2023-04-24T00:33:15;99293.77;;;15.67;36.22
80248;BME280;69560;52.206;21.018;2023-04-24T00:35:44;99293.59;;;15.62;36.35
80248;BME280;69560;52.206;21.018;2023-04-24T00:38:11;99292.13;;;15.58;36.32
80248;BME280;69560;52.206;21.018;2023-04-24T00:40:38;99289.48;;;15.54;36.38
80248;BME280;69560;52.206;21.018;2023-04-24T00:43:05;99288.52;;;15.49;36.37
80248;BME280;69560;52.206;21.018;2023-04-24T00:45:31;99283.76;;;15.43;36.53
80248;BME280;69560;52.206;21.018;2023-04-24T00:48:00;99283.73;;;15.38;36.63
80248;BME280;69560;52.206;21.018;2023-04-24T00:50:28;99288.42;;;15.33;36.82
80248;BME280;69560;52.206;21.018;2023-04-24T00:52:54;99289.13;;;15.30;36.89
80248;BME280;69560;52.206;21.018;2023-04-24T00:55:21;99287.13;;;15.29;37.08
80248;BME280;69560;52.206;21.018;2023-04-24T00:57:48;99286.29;;;15.27;37.17
80248;BME280;69560;52.206;21.018;2023-04-24T01:00:19;99285.67;;;15.25;37.12
80248;BME280;69560;52.206;21.018;2023-04-24T01:02:45;99282.65;;;15.25;37.29
80248;BME280;69560;52.206;21.018;2023-04-24T01:05:13;99283.35;;;15.25;37.27
80248;BME280;69560;52.206;21.018;2023-04-24T01:07:43;99279.53;;;15.25;37.42
80248;BME280;69560;52.206;21.018;2023-04-24T01:10:15;99282.52;;;15.23;37.37
80248;BME280;69560;52.206;21.018;2023-04-24T01:12:43;99284.06;;;15.21;37.46
80248;BME280;69560;52.206;21.018;2023-04-24T01:15:10;99286.48;;;15.20;37.66
80248;BME280;69560;52.206;21.018;2023-04-24T01:17:37;99290.48;;;15.19;37.84
80248;BME280;69560;52.206;21.018;2023-04-24T01:20:15;99290.27;;;15.17;37.89
80248;BME280;69560;52.206;21.018;2023-04-24T01:22:42;99284.36;;;15.16;38.03
80248;BME280;69560;52.206;21.018;2023-04-24T01:25:12;99284.13;;;15.16;38.04
80248;BME280;69560;52.206;21.018;2023-04-24T01:27:39;99284.28;;;15.17;38.03
80248;BME280;69560;52.206;21.018;2023-04-24T01:30:07;99283.63;;;15.18;38.14
80248;BME280;69560;52.206;21.018;2023-04-24T01:32:34;99285.54;;;15.18;38.40
80248;BME280;69560;52.206;21.018;2023-04-24T01:35:02;99284.98;;;15.18;38.31
80248;BME280;69560;52.206;21.018;2023-04-24T01:37:29;99283.14;;;15.18;38.18
80248;BME280;69560;52.206;21.018;2023-04-24T01:39:55;99277.71;;;15.18;38.38
80248;BME280;69560;52.206;21.018;2023-04-24T01:42:22;99276.27;;;15.19;38.38
80248;BME280;69560;52.206;21.018;2023-04-24T01:44:50;99273.71;;;15.20;38.44
80248;BME280;69560;52.206;21.018;2023-04-24T01:47:17;99273.30;;;15.21;38.36
80248;BME280;69560;52.206;21.018;2023-04-24T01:49:45;99268.27;;;15.21;38.31
80248;BME280;69560;52.206;21.018;2023-04-24T01:52:12;99267.30;;;15.21;38.31
80248;BME280;69560;52.206;21.018;2023-04-24T01:54:39;99267.98;;;15.19;38.34
80248;BME280;69560;52.206;21.018;2023-04-24T01:57:06;99263.98;;;15.18;38.46
80248;BME280;69560;52.206;21.018;2023-04-24T01:59:34;99261.08;;;15.16;38.22
80248;BME280;69560;52.206;21.018;2023-04-24T02:02:03;99261.85;;;15.12;38.32
80248;BME280;69560;52.206;21.018;2023-04-24T02:04:30;99258.30;;;15.09;38.45
80248;BME280;69560;52.206;21.018;2023-04-24T02:06:56;99255.70;;;15.06;38.33
80248;BME280;69560;52.206;21.018;2023-04-24T02:09:26;99250.11;;;15.02;38.41
80248;BME280;69560;52.206;21.018;2023-04-24T02:11:53;99249.08;;;14.96;38.38
80248;BME280;69560;52.206;21.018;2023-04-24T02:14:19;99248.64;;;14.93;38.56
80248;BME280;69560;52.206;21.018;2023-04-24T02:16:46;99250.05;;;14.90;38.50
80248;BME280;69560;52.206;21.018;2023-04-24T02:19:13;99248.45;;;14.84;38.63
80248;BME280;69560;52.206;21.018;2023-04-24T02:21:39;99246.03;;;14.80;38.91
80248;BME280;69560;52.206;21.018;2023-04-24T02:24:06;99240.70;;;14.78;39.05
80248;BME280;69560;52.206;21.018;2023-04-24T02:26:33;99232.17;;;14.72;38.98
80248;BME280;69560;52.206;21.018;2023-04-24T02:28:59;99230.25;;;14.68;38.97
80248;BME280;69560;52.206;21.018;2023-04-24T02:31:26;99227.02;;;14.65;39.27
80248;BME280;69560;52.206;21.018;2023-04-24T02:34:06;99227.31;;;14.60;39.21
80248;BME280;69560;52.206;21.018;2023-04-24T02:36:36;99227.53;;;14.55;39.27
80248;BME280;69560;52.206;21.018;2023-04-24T02:39:03;99231.17;;;14.51;39.47
80248;BME280;69560;52.206;21.018;2023-04-24T02:41:30;99232.13;;;14.45;39.51
80248;BME280;69560;52.206;21.018;2023-04-24T02:43:58;99234.13;;;14.39;39.60
80248;BME280;69560;52.206;21.018;2023-04-24T02:46:26;99229.52;;;14.31;39.52
80248;BME280;69560;52.206;21.018;2023-04-24T02:48:52;99232.50;;;14.26;39.94
80248;BME280;69560;52.206;21.018;2023-04-24T02:51:25;99232.59;;;14.24;39.77
80248;BME280;69560;52.206;21.018;2023-04-24T02:53:53;99234.20;;;14.22;40.03
80248;BME280;69560;52.206;21.018;2023-04-24T02:56:23;99228.04;;;14.19;39.87
80248;BME280;69560;52.206;21.018;2023-04-24T02:58:53;99230.64;;;14.15;39.92
80248;BME280;69560;52.206;21.018;2023-04-24T03:01:19;99231.06;;;14.12;40.17
80248;BME280;69560;52.206;21.018;2023-04-24T03:03:46;99224.17;;;14.09;40.23
80248;BME280;69560;52.206;21.018;2023-04-24T03:06:13;99222.22;;;14.04;40.22
80248;BME280;69560;52.206;21.018;2023-04-24T03:08:41;99221.14;;;14.01;40.18
80248;BME280;69560;52.206;21.018;2023-04-24T03:11:07;99220.76;;;14.00;40.33
80248;BME280;69560;52.206;21.018;2023-04-24T03:13:34;99220.45;;;13.99;40.40
80248;BME280;69560;52.206;21.018;2023-04-24T03:16:01;99219.52;;;13.98;40.60
80248;BME280;69560;52.206;21.018;2023-04-24T03:18:32;99219.13;;;13.96;40.56
80248;BME280;69560;52.206;21.018;2023-04-24T03:20:58;99226.02;;;13.92;40.63
80248;BME280;69560;52.206;21.018;2023-04-24T03:23:25;99221.76;;;13.88;40.62
80248;BME280;69560;52.206;21.018;2023-04-24T03:25:52;99225.37;;;13.85;40.59
80248;BME280;69560;52.206;21.018;2023-04-24T03:28:19;99227.27;;;13.84;40.77
80248;BME280;69560;52.206;21.018;2023-04-24T03:30:55;99224.85;;;13.82;41.05
80248;BME280;69560;52.206;21.018;2023-04-24T03:33:22;99228.77;;;13.78;40.83
80248;BME280;69560;52.206;21.018;2023-04-24T03:35:48;99233.10;;;13.76;40.97
80248;BME280;69560;52.206;21.018;2023-04-24T03:38:15;99226.84;;;13.74;40.97
80248;BME280;69560;52.206;21.018;2023-04-24T03:40:42;99238.63;;;13.72;40.95
80248;BME280;69560;52.206;21.018;2023-04-24T03:43:08;99238.42;;;13.69;41.22
80248;BME280;69560;52.206;21.018;2023-04-24T03:45:35;99237.42;;;13.65;41.37
80248;BME280;69560;52.206;21.018;2023-04-24T03:48:02;99239.13;;;13.62;41.44
80248;BME280;69560;52.206;21.018;2023-04-24T03:50:29;99237.72;;;13.59;41.43
80248;BME280;69560;52.206;21.018;2023-04-24T03:52:55;99236.29;;;13.59;41.79
80248;BME280;69560;52.206;21.018;2023-04-24T03:55:22;99232.16;;;13.58;41.52
80248;BME280;69560;52.206;21.018;2023-04-24T03:57:49;99231.52;;;13.58;41.71
80248;BME280;69560;52.206;21.018;2023-04-24T04:00:15;99235.94;;;13.53;41.78
80248;BME280;69560;52.206;21.018;2023-04-24T04:02:42;99238.75;;;13.51;42.01
80248;BME280;69560;52.206;21.018;2023-04-24T04:05:09;99235.66;;;13.49;41.87
80248;BME280;69560;52.206;21.018;2023-04-24T04:07:35;99235.91;;;13.47;41.90
80248;BME280;69560;52.206;21.018;2023-04-24T04:10:02;99238.95;;;13.45;42.24
80248;BME280;69560;52.206;21.018;2023-04-24T04:12:29;99234.78;;;13.40;42.30
80248;BME280;69560;52.206;21.018;2023-04-24T04:14:56;99233.94;;;13.35;42.33
80248;BME280;69560;52.206;21.018;2023-04-24T04:17:23;99230.92;;;13.34;42.46
80248;BME280;69560;52.206;21.018;2023-04-24T04:19:50;99236.59;;;13.34;42.58
80248;BME280;69560;52.206;21.018;2023-04-24T04:22:16;99239.38;;;13.33;42.78
80248;BME280;69560;52.206;21.018;2023-04-24T04:24:43;99244.56;;;13.32;42.86
80248;BME280;69560;52.206;21.018;2023-04-24T04:27:10;99247.33;;;13.33;42.88
80248;BME280;69560;52.206;21.018;2023-04-24T04:29:37;99245.73;;;13.33;42.94
80248;BME280;69560;52.206;21.018;2023-04-24T04:32:04;99244.13;;;13.35;42.98
80248;BME280;69560;52.206;21.018;2023-04-24T04:34:31;99241.98;;;13.38;43.20
80248;BME280;69560;52.206;21.018;2023-04-24T04:36:59;99242.02;;;13.41;43.22
80248;BME280;69560;52.206;21.018;2023-04-24T04:39:28;99246.47;;;13.42;43.09
80248;BME280;69560;52.206;21.018;2023-04-24T04:41:54;99245.67;;;13.42;43.22
80248;BME280;69560;52.206;21.018;2023-04-24T04:44:21;99243.34;;;13.45;43.26
80248;BME280;69560;52.206;21.018;2023-04-24T04:46:48;99243.15;;;13.49;43.46
80248;BME280;69560;52.206;21.018;2023-04-24T04:49:15;99235.61;;;13.54;43.18
80248;BME280;69560;52.206;21.018;2023-04-24T04:51:43;99233.42;;;13.60;43.37
80248;BME280;69560;52.206;21.018;2023-04-24T04:54:09;99232.34;;;13.65;43.57
80248;BME280;69560;52.206;21.018;2023-04-24T04:56:36;99230.77;;;13.70;43.30
80248;BME280;69560;52.206;21.018;2023-04-24T04:59:02;99228.35;;;13.74;43.33
80248;BME280;69560;52.206;21.018;2023-04-24T05:01:29;99227.45;;;13.83;43.36
80248;BME280;69560;52.206;21.018;2023-04-24T05:03:56;99226.22;;;13.95;43.60
80248;BME280;69560;52.206;21.018;2023-04-24T05:06:23;99227.23;;;14.05;43.33
80248;BME280;69560;52.206;21.018;2023-04-24T05:08:50;99226.99;;;14.13;43.42
80248;BME280;69560;52.206;21.018;2023-04-24T05:11:17;99224.23;;;14.23;43.41
80248;BME280;69560;52.206;21.018;2023-04-24T05:13:44;99226.55;;;14.32;43.22
80248;BME280;69560;52.206;21.018;2023-04-24T05:16:10;99223.65;;;14.41;43.28
80248;BME280;69560;52.206;21.018;2023-04-24T05:18:37;99225.16;;;14.48;43.21
80248;BME280;69560;52.206;21.018;2023-04-24T05:21:04;99220.11;;;14.56;43.20
80248;BME280;69560;52.206;21.018;2023-04-24T05:23:31;99223.65;;;14.66;43.20
80248;BME280;69560;52.206;21.018;2023-04-24T05:25:58;99224.79;;;14.76;43.11
80248;BME280;69560;52.206;21.018;2023-04-24T05:28:24;99223.98;;;14.87;43.24
80248;BME280;69560;52.206;21.018;2023-04-24T05:30:55;99224.73;;;14.97;43.02
80248;BME280;69560;52.206;21.018;2023-04-24T05:33:22;99221.95;;;15.06;42.88
80248;BME280;69560;52.206;21.018;2023-04-24T05:35:48;99222.77;;;15.15;42.76
80248;BME280;69560;52.206;21.018;2023-04-24T05:38:15;99219.44;;;15.23;42.75
80248;BME280;69560;52.206;21.018;2023-04-24T05:40:44;99218.96;;;15.34;42.65
80248;BME280;69560;52.206;21.018;2023-04-24T05:43:10;99215.13;;;15.46;42.56
80248;BME280;69560;52.206;21.018;2023-04-24T05:45:38;99211.15;;;15.54;42.32
80248;BME280;69560;52.206;21.018;2023-04-24T05:48:04;99208.60;;;15.63;42.19
80248;BME280;69560;52.206;21.018;2023-04-24T05:50:31;99207.19;;;15.71;42.14
80248;BME280;69560;52.206;21.018;2023-04-24T05:52:58;99209.02;;;15.80;42.14
80248;BME280;69560;52.206;21.018;2023-04-24T05:55:25;99207.77;;;15.91;42.18
80248;BME280;69560;52.206;21.018;2023-04-24T05:57:57;99205.48;;;16.03;42.09
80248;BME280;69560;52.206;21.018;2023-04-24T06:00:24;99209.59;;;16.17;42.01
80248;BME280;69560;52.206;21.018;2023-04-24T06:02:51;99207.59;;;16.29;41.99
80248;BME280;69560;52.206;21.018;2023-04-24T06:05:19;99207.53;;;16.43;41.92
80248;BME280;69560;52.206;21.018;2023-04-24T06:07:45;99200.66;;;16.56;41.71
80248;BME280;69560;52.206;21.018;2023-04-24T06:10:12;99202.59;;;16.67;41.51
80248;BME280;69560;52.206;21.018;2023-04-24T06:12:39;99202.20;;;16.74;41.19
80248;BME280;69560;52.206;21.018;2023-04-24T06:15:06;99202.44;;;16.84;41.20
80248;BME280;69560;52.206;21.018;2023-04-24T06:17:33;99199.85;;;16.92;40.87
80248;BME280;69560;52.206;21.018;2023-04-24T06:20:00;99197.65;;;16.97;40.74
80248;BME280;69560;52.206;21.018;2023-04-24T06:22:27;99196.08;;;17.07;40.74
80248;BME280;69560;52.206;21.018;2023-04-24T06:24:54;99195.98;;;17.17;40.80
80248;BME280;69560;52.206;21.018;2023-04-24T06:27:20;99198.11;;;17.29;40.74
80248;BME280;69560;52.206;21.018;2023-04-24T06:29:47;99195.55;;;17.42;40.67
80248;BME280;69560;52.206;21.018;2023-04-24T06:32:22;99198.05;;;17.54;40.54
80248;BME280;69560;52.206;21.018;2023-04-24T06:34:50;99197.38;;;17.65;40.44
80248;BME280;69560;52.206;21.018;2023-04-24T06:37:17;99192.10;;;17.77;40.32
80248;BME280;69560;52.206;21.018;2023-04-24T06:39:43;99192.37;;;17.88;40.23
80248;BME280;69560;52.206;21.018;2023-04-24T06:42:10;99188.63;;;17.98;40.10
80248;BME280;69560;52.206;21.018;2023-04-24T06:44:37;99182.85;;;18.07;39.97
80248;BME280;69560;52.206;21.018;2023-04-24T06:47:08;99182.71;;;18.18;40.05
80248;BME280;69560;52.206;21.018;2023-04-24T06:49:38;99179.80;;;18.30;40.03
80248;BME280;69560;52.206;21.018;2023-04-24T06:52:05;99185.00;;;18.45;39.87
80248;BME280;69560;52.206;21.018;2023-04-24T06:54:33;99183.20;;;18.57;39.79
80248;BME280;69560;52.206;21.018;2023-04-24T06:57:00;99182.50;;;18.70;39.70
80248;BME280;69560;52.206;21.018;2023-04-24T06:59:30;99181.03;;;18.83;39.53
80248;BME280;69560;52.206;21.018;2023-04-24T07:01:57;99184.60;;;18.98;39.46
80248;BME280;69560;52.206;21.018;2023-04-24T07:04:24;99179.76;;;19.09;39.29
80248;BME280;69560;52.206;21.018;2023-04-24T07:06:51;99174.42;;;19.19;39.00
80248;BME280;69560;52.206;21.018;2023-04-24T07:09:20;99177.52;;;19.28;38.75
80248;BME280;69560;52.206;21.018;2023-04-24T07:11:48;99176.55;;;19.34;38.63
80248;BME280;69560;52.206;21.018;2023-04-24T07:14:15;99177.36;;;19.38;38.41
80248;BME280;69560;52.206;21.018;2023-04-24T07:16:42;99174.47;;;19.43;38.20
80248;BME280;69560;52.206;21.018;2023-04-24T07:19:09;99173.08;;;19.47;38.21
80248;BME280;69560;52.206;21.018;2023-04-24T07:21:36;99173.10;;;19.53;38.13
80248;BME280;69560;52.206;21.018;2023-04-24T07:24:02;99174.27;;;19.56;38.12
80248;BME280;69560;52.206;21.018;2023-04-24T07:26:30;99173.63;;;19.61;38.05
80248;BME280;69560;52.206;21.018;2023-04-24T07:28:57;99170.77;;;19.69;37.98
80248;BME280;69560;52.206;21.018;2023-04-24T07:31:24;99170.82;;;19.74;38.04
80248;BME280;69560;52.206;21.018;2023-04-24T07:33:50;99172.38;;;19.80;37.97
80248;BME280;69560;52.206;21.018;2023-04-24T07:36:17;99171.16;;;19.85;37.86
80248;BME280;69560;52.206;21.018;2023-04-24T07:38:45;99172.76;;;19.85;37.76
80248;BME280;69560;52.206;21.018;2023-04-24T07:41:13;99172.33;;;19.86;37.72
80248;BME280;69560;52.206;21.018;2023-04-24T07:43:41;99173.29;;;19.84;37.51
80248;BME280;69560;52.206;21.018;2023-04-24T07:46:08;99171.31;;;19.83;37.33
80248;BME280;69560;52.206;21.018;2023-04-24T07:48:35;99171.27;;;19.89;37.46
80248;BME280;69560;52.206;21.018;2023-04-24T07:51:01;99170.35;;;19.99;37.37
80248;BME280;69560;52.206;21.018;2023-04-24T07:53:28;99170.11;;;20.13;37.43
80248;BME280;69560;52.206;21.018;2023-04-24T07:55:56;99168.67;;;20.22;37.26
80248;BME280;69560;52.206;21.018;2023-04-24T07:58:22;99171.34;;;20.32;37.19
80248;BME280;69560;52.206;21.018;2023-04-24T08:00:49;99173.88;;;20.37;36.95
80248;BME280;69560;52.206;21.018;2023-04-24T08:03:16;99173.05;;;20.38;36.72
80248;BME280;69560;52.206;21.018;2023-04-24T08:05:45;99163.00;;;20.38;36.68
80248;BME280;69560;52.206;21.018;2023-04-24T08:08:12;99165.38;;;20.43;36.73
80248;BME280;69560;52.206;21.018;2023-04-24T08:10:39;99166.83;;;20.47;36.73
80248;BME280;69560;52.206;21.018;2023-04-24T08:13:05;99162.25;;;20.51;36.71
80248;BME280;69560;52.206;21.018;2023-04-24T08:15:32;99162.48;;;20.51;36.65
80248;BME280;69560;52.206;21.018;2023-04-24T08:17:59;99159.86;;;20.57;36.78
80248;BME280;69560;52.206;21.018;2023-04-24T08:20:26;99164.96;;;20.68;36.92
80248;BME280;69560;52.206;21.018;2023-04-24T08:22:52;99163.45;;;20.78;36.94
80248;BME280;69560;52.206;21.018;2023-04-24T08:25:19;99163.79;;;20.88;36.86
80248;BME280;69560;52.206;21.018;2023-04-24T08:27:46;99161.75;;;20.96;36.79
80248;BME280;69560;52.206;21.018;2023-04-24T08:30:13;99164.36;;;21.02;36.56
80248;BME280;69560;52.206;21.018;2023-04-24T08:32:39;99164.88;;;21.10;36.44
80248;BME280;69560;52.206;21.018;2023-04-24T08:35:06;99164.77;;;21.16;36.29
80248;BME280;69560;52.206;21.018;2023-04-24T08:37:37;99163.83;;;21.25;36.33
80248;BME280;69560;52.206;21.018;2023-04-24T08:40:12;99158.92;;;21.41;36.57
80248;BME280;69560;52.206;21.018;2023-04-24T08:42:42;99159.88;;;21.58;36.59
80248;BME280;69560;52.206;21.018;2023-04-24T08:45:10;99162.73;;;21.75;36.30
80248;BME280;69560;52.206;21.018;2023-04-24T08:47:41;99160.59;;;21.92;36.23
80248;BME280;69560;52.206;21.018;2023-04-24T08:50:08;99156.59;;;22.10;36.02
80248;BME280;69560;52.206;21.018;2023-04-24T08:52:36;99154.66;;;22.24;35.55
80248;BME280;69560;52.206;21.018;2023-04-24T08:55:03;99149.36;;;22.37;35.22
80248;BME280;69560;52.206;21.018;2023-04-24T08:57:30;99152.36;;;22.55;35.28
80248;BME280;69560;52.206;21.018;2023-04-24T08:59:58;99151.66;;;22.75;35.21
80248;BME280;69560;52.206;21.018;2023-04-24T09:02:26;99150.84;;;22.95;35.27
80248;BME280;69560;52.206;21.018;2023-04-24T09:04:53;99150.77;;;23.18;35.05
80248;BME280;69560;52.206;21.018;2023-04-24T09:07:22;99149.33;;;23.35;34.70
80248;BME280;69560;52.206;21.018;2023-04-24T09:09:51;99155.58;;;23.47;34.56
80248;BME280;69560;52.206;21.018;2023-04-24T09:12:18;99148.27;;;23.59;34.36
80248;BME280;69560;52.206;21.018;2023-04-24T09:14:45;99147.44;;;23.68;33.99
80248;BME280;69560;52.206;21.018;2023-04-24T09:17:12;99147.27;;;23.70;33.43
80248;BME280;69560;52.206;21.018;2023-04-24T09:19:40;99140.54;;;23.70;33.23
80248;BME280;69560;52.206;21.018;2023-04-24T09:22:08;99142.79;;;23.74;33.15
80248;BME280;69560;52.206;21.018;2023-04-24T09:24:35;99142.05;;;23.76;33.08
80248;BME280;69560;52.206;21.018;2023-04-24T09:27:03;99136.19;;;23.76;32.89
80248;BME280;69560;52.206;21.018;2023-04-24T09:29:30;99132.02;;;23.74;32.83
80248;BME280;69560;52.206;21.018;2023-04-24T09:31:58;99131.52;;;23.84;33.20
80248;BME280;69560;52.206;21.018;2023-04-24T09:34:26;99132.34;;;23.99;33.29
80248;BME280;69560;52.206;21.018;2023-04-24T09:36:56;99129.48;;;24.16;33.31
80248;BME280;69560;52.206;21.018;2023-04-24T09:39:23;99127.41;;;24.34;33.10
80248;BME280;69560;52.206;21.018;2023-04-24T09:41:50;99126.94;;;24.48;32.91
80248;BME280;69560;52.206;21.018;2023-04-24T09:44:21;99121.29;;;24.65;32.75
80248;BME280;69560;52.206;21.018;2023-04-24T09:46:50;99118.97;;;24.89;32.62
80248;BME280;69560;52.206;21.018;2023-04-24T09:49:29;99120.52;;;25.14;32.56
80248;BME280;69560;52.206;21.018;2023-04-24T09:52:10;99121.02;;;25.40;32.33
80248;BME280;69560;52.206;21.018;2023-04-24T09:54:38;99114.57;;;25.64;31.85
80248;BME280;69560;52.206;21.018;2023-04-24T09:57:07;99108.69;;;25.82;31.25
80248;BME280;69560;52.206;21.018;2023-04-24T09:59:34;99107.98;;;26.01;30.90
80248;BME280;69560;52.206;21.018;2023-04-24T10:02:00;99107.08;;;26.24;30.54
80248;BME280;69560;52.206;21.018;2023-04-24T10:04:28;99103.80;;;26.42;30.01
80248;BME280;69560;52.206;21.018;2023-04-24T10:06:56;99102.29;;;26.58;29.35
80248;BME280;69560;52.206;21.018;2023-04-24T10:09:25;99102.44;;;26.74;29.12
80248;BME280;69560;52.206;21.018;2023-04-24T10:11:53;99096.54;;;26.91;28.97
80248;BME280;69560;52.206;21.018;2023-04-24T10:14:22;99100.22;;;27.05;28.75
80248;BME280;69560;52.206;21.018;2023-04-24T10:16:50;99095.87;;;27.13;28.11
80248;BME280;69560;52.206;21.018;2023-04-24T10:19:18;99097.08;;;27.11;27.91
80248;BME280;69560;52.206;21.018;2023-04-24T10:21:46;99093.70;;;27.05;27.67
80248;BME280;69560;52.206;21.018;2023-04-24T10:24:14;99091.79;;;27.07;27.67
80248;BME280;69560;52.206;21.018;2023-04-24T10:26:43;99087.84;;;27.14;27.82
80248;BME280;69560;52.206;21.018;2023-04-24T10:29:11;99086.29;;;27.20;27.72
80248;BME280;69560;52.206;21.018;2023-04-24T10:31:39;99087.59;;;27.13;27.13
80248;BME280;69560;52.206;21.018;2023-04-24T10:34:07;99093.55;;;26.93;26.87
80248;BME280;69560;52.206;21.018;2023-04-24T10:36:35;99091.90;;;26.80;26.89
80248;BME280;69560;52.206;21.018;2023-04-24T10:39:06;99090.24;;;26.70;26.87
80248;BME280;69560;52.206;21.018;2023-04-24T10:41:37;99082.91;;;26.65;27.09
80248;BME280;69560;52.206;21.018;2023-04-24T10:44:11;99079.23;;;26.70;27.18
80248;BME280;69560;52.206;21.018;2023-04-24T10:46:44;99077.94;;;26.74;26.94
80248;BME280;69560;52.206;21.018;2023-04-24T10:49:11;99074.36;;;26.79;27.10
80248;BME280;69560;52.206;21.018;2023-04-24T10:51:49;99071.69;;;26.82;26.51
80248;BME280;69560;52.206;21.018;2023-04-24T10:54:35;99065.83;;;26.73;26.29
80248;BME280;69560;52.206;21.018;2023-04-24T10:59:50;99070.08;;;26.64;25.94
80248;BME280;69560;52.206;21.018;2023-04-24T11:02:17;99060.55;;;26.61;25.95
80248;BME280;69560;52.206;21.018;2023-04-24T11:04:44;99064.14;;;26.65;25.91
80248;BME280;69560;52.206;21.018;2023-04-24T11:07:14;99064.88;;;26.70;25.78
80248;BME280;69560;52.206;21.018;2023-04-24T11:09:42;99061.85;;;26.74;25.78
80248;BME280;69560;52.206;21.018;2023-04-24T11:12:10;99063.85;;;26.85;25.92
80248;BME280;69560;52.206;21.018;2023-04-24T11:17:32;99063.55;;;26.87;25.34
80248;BME280;69560;52.206;21.018;2023-04-24T11:20:11;99060.73;;;26.91;25.37
80248;BME280;69560;52.206;21.018;2023-04-24T11:22:38;99061.00;;;26.97;25.25
80248;BME280;69560;52.206;21.018;2023-04-24T11:25:09;99060.07;;;26.98;24.95
80248;BME280;69560;52.206;21.018;2023-04-24T11:27:40;99055.98;;;26.99;24.78
80248;BME280;69560;52.206;21.018;2023-04-24T11:30:08;99061.36;;;27.08;24.83
80248;BME280;69560;52.206;21.018;2023-04-24T11:35:06;99052.36;;;27.18;24.39
80248;BME280;69560;52.206;21.018;2023-04-24T11:37:38;99054.23;;;27.18;23.79
80248;BME280;69560;52.206;21.018;2023-04-24T11:40:10;99049.58;;;27.10;23.52
80248;BME280;69560;52.206;21.018;2023-04-24T11:42:39;99049.75;;;27.02;23.28
80248;BME280;69560;52.206;21.018;2023-04-24T11:45:18;99046.90;;;26.95;23.56
80248;BME280;69560;52.206;21.018;2023-04-24T11:47:45;99046.02;;;26.94;23.39
80248;BME280;69560;52.206;21.018;2023-04-24T11:50:14;99041.40;;;27.00;23.52
80248;BME280;69560;52.206;21.018;2023-04-24T11:52:43;99044.11;;;27.10;23.61
80248;BME280;69560;52.206;21.018;2023-04-24T11:57:49;99040.89;;;27.18;23.17
80248;BME280;69560;52.206;21.018;2023-04-24T12:00:17;99033.74;;;27.09;23.06
80248;BME280;69560;52.206;21.018;2023-04-24T12:02:44;99034.79;;;27.01;22.99
80248;BME280;69560;52.206;21.018;2023-04-24T12:05:21;99027.96;;;26.95;23.11
80248;BME280;69560;52.206;21.018;2023-04-24T12:07:48;99025.47;;;27.00;23.41
80248;BME280;69560;52.206;21.018;2023-04-24T12:10:21;99025.14;;;26.97;23.22
80248;BME280;69560;52.206;21.018;2023-04-24T12:12:48;99023.70;;;26.93;23.42
80248;BME280;69560;52.206;21.018;2023-04-24T12:15:17;99021.11;;;26.96;23.22
80248;BME280;69560;52.206;21.018;2023-04-24T12:17:45;99014.33;;;26.96;23.00
80248;BME280;69560;52.206;21.018;2023-04-24T12:20:13;99011.12;;;26.87;22.84
80248;BME280;69560;52.206;21.018;2023-04-24T12:25:17;99007.45;;;26.80;23.05
80248;BME280;69560;52.206;21.018;2023-04-24T12:27:46;99000.41;;;26.79;23.10
80248;BME280;69560;52.206;21.018;2023-04-24T12:30:14;99009.93;;;26.82;23.11
80248;BME280;69560;52.206;21.018;2023-04-24T12:32:46;99008.98;;;26.79;23.15
80248;BME280;69560;52.206;21.018;2023-04-24T12:35:18;98998.08;;;26.79;23.30
80248;BME280;69560;52.206;21.018;2023-04-24T12:37:46;98997.62;;;26.81;23.12
80248;BME280;69560;52.206;21.018;2023-04-24T12:40:13;99001.27;;;26.86;23.22
80248;BME280;69560;52.206;21.018;2023-04-24T12:42:45;99000.27;;;26.89;23.45
80248;BME280;69560;52.206;21.018;2023-04-24T12:45:12;99019.55;;;26.83;23.28
80248;BME280;69560;52.206;21.018;2023-04-24T12:47:40;99029.38;;;26.63;23.21
80248;BME280;69560;52.206;21.018;2023-04-24T12:50:08;99028.32;;;26.24;23.20
80248;BME280;69560;52.206;21.018;2023-04-24T12:52:35;99039.63;;;25.80;23.31
80248;BME280;69560;52.206;21.018;2023-04-24T12:55:02;99036.80;;;25.35;23.65
80248;BME280;69560;52.206;21.018;2023-04-24T12:57:31;99040.02;;;24.89;24.08
80248;BME280;69560;52.206;21.018;2023-04-24T12:59:58;99043.45;;;24.50;24.53
80248;BME280;69560;52.206;21.018;2023-04-24T13:02:27;99046.36;;;24.25;25.02
80248;BME280;69560;52.206;21.018;2023-04-24T13:04:54;99034.47;;;24.00;25.40
80248;BME280;69560;52.206;21.018;2023-04-24T13:07:21;99051.34;;;23.70;25.47